Vinton, IA

9:57 AM CST on February 08, 2016 (GMT -0600)
VintonWeather.com | | Change Station
CLOSE
Current Station
Personal Weather Station
Location: Vinton, IA
Elevation: 827 ft
Nearby Weather Stations

Elev 827 ft 42.15 °N, 92.03 °W | Updated 2 minutes ago

Snow
Snow
16.6 °F
Feels Like 4 °F
N
11.0
Wind Variable Wind from WNW
Gusts 16.0 mph

Today
High -- | Low -- °F
--% Chance of Precip.
Yesterday
High -- | Low -- °F
Precip. -- in
Pressure 29.84 in
Visibility 10.0 miles
Clouds Scattered Clouds 800 ft
Windchill 4 °F
Dew Point 12 °F
Humidity 82%
Rainfall 0.00 in
Snow Depth Not available.
7:14 AM 5:31 PM
New Moon, 0% visible
METAR KVTI 081535Z AUTO 33015G21KT 10SM -SN SCT008 M08/M12 A2984 RMK AO2 T10771122
Pressure 29.84 in
Visibility 10.0 miles
Clouds Scattered Clouds 800 ft
Windchill 4 °F
Dew Point 12 °F
Humidity 82%
Rainfall 0.00 in
Snow Depth Not available.
7:14 AM 5:31 PM
New Moon, 0% visible
METAR KVTI 081535Z AUTO 33015G21KT 10SM -SN SCT008 M08/M12 A2984 RMK AO2 T10771122

10-Day Weather Forecast

Almanac

Astronomy

Feb. 08, 2016 Rise Set
Actual Time
Civil Twilight
Nautical Twilight
Astronomical Twilight
Moon
Length of Visible Light
Length of Day
Tomorrow will be .
, % of the Moon is Illuminated

Today's Extremes

State Highs State Lows

Community

WunderPhotos

Upload Photos

1,891,440 photos uploaded!

WunderBlog® & News

Nearby

Air Quality

  Air Quality AQ Index Pollutant
Not available.

Snow Depth

Station Depth Elevation

Earthquake Activity

City Distance Mag. Time & Date
Minimum magnitude displayed is 2.5.

Coastal Water Temperatures

Place Temperature

Stations

Nearby Weather Stations

Station Location Temp. Windchill Dew Point Humidity Wind Precip. Elev Updated Type
                   

Watches & Warnings

There are currently no watches in effect.